Time;durP1;ratioP1;P1;durP2;ratioP2;P2;SDS_P1;SDS_P2;PMS_P1;PMS_P2;Temp;Humidity;BMP_temperature;BMP_pressure;BME280_temperature;BME280_humidity;BME280_pressure;Samples;Min_cycle;Max_cycle;Signal;HPM_P1;HPM_P2
2022/10/11 00:00:59;;;;;;;3.63;1.10;;;;;;;25.58;38.27;102095.94;4977288;28;20062;-55
2022/10/11 00:03:28;;;;;;;1.75;0.93;;;;;;;25.57;38.22;102101.16;4975542;28;20441;-54
2022/10/11 00:05:56;;;;;;;3.45;1.25;;;;;;;25.62;37.75;102097.81;4977284;28;20085;-56
2022/10/11 00:08:25;;;;;;;4.22;1.13;;;;;;;25.55;38.18;102092.38;4977046;28;20030;-55
2022/10/11 00:11:06;;;;;;;3.67;1.33;;;;;;;25.61;38.01;102111.78;4977056;28;20027;-56
2022/10/11 00:13:34;;;;;;;3.17;1.20;;;;;;;25.65;37.86;102103.97;4976652;28;20101;-56
2022/10/11 00:16:08;;;;;;;5.13;1.50;;;;;;;25.59;38.12;102109.94;4976640;28;20069;-56
2022/10/11 00:18:37;;;;;;;2.30;1.05;;;;;;;25.53;38.30;102112.44;4976837;28;20445;-56
2022/10/11 00:21:08;;;;;;;2.63;0.98;;;;;;;25.52;38.32;102111.53;4976751;28;20082;-55
2022/10/11 00:23:37;;;;;;;4.72;1.15;;;;;;;25.55;38.07;102101.13;4976264;28;20444;-55
2022/10/11 00:26:07;;;;;;;1.38;0.95;;;;;;;25.54;38.02;102104.59;4976662;28;20058;-55
2022/10/11 00:28:36;;;;;;;3.03;1.02;;;;;;;25.54;37.98;102104.59;4976734;28;20030;-56
2022/10/11 00:31:08;;;;;;;4.32;1.40;;;;;;;25.50;38.13;102109.75;4975399;28;20103;-54
2022/10/11 00:33:36;;;;;;;3.03;1.15;;;;;;;25.56;38.01;102108.16;4976587;28;20207;-54
2022/10/11 00:36:05;;;;;;;3.65;1.25;;;;;;;25.52;38.06;102108.91;4976230;28;20041;-56
2022/10/11 00:38:34;;;;;;;3.42;1.00;;;;;;;25.52;38.22;102108.03;4976256;28;20455;-56
2022/10/11 00:41:02;;;;;;;2.75;1.10;;;;;;;25.54;38.09;102112.47;4976433;28;20054;-55
2022/10/11 00:43:32;;;;;;;3.15;1.27;;;;;;;25.48;38.16;102113.22;4975923;28;20038;-55
2022/10/11 00:46:03;;;;;;;2.90;1.02;;;;;;;25.51;38.13;102115.03;4976342;28;20031;-56
2022/10/11 00:48:37;;;;;;;3.10;1.02;;;;;;;25.47;38.19;102110.56;4975986;28;20106;-56
2022/10/11 00:51:12;;;;;;;2.03;0.88;;;;;;;25.50;37.84;102121.13;4976186;28;20106;-55
2022/10/11 00:53:41;;;;;;;3.63;1.05;;;;;;;25.46;38.24;102114.03;4975023;28;20033;-54
2022/10/11 00:56:25;;;;;;;5.80;1.10;;;;;;;25.45;38.01;102112.25;4976268;28;20027;-56
2022/10/11 00:58:55;;;;;;;3.63;1.20;;;;;;;25.43;38.07;102112.22;4976154;28;20034;-55
2022/10/11 01:01:22;;;;;;;2.83;1.13;;;;;;;25.54;37.78;102124.75;4974407;28;20026;-56
2022/10/11 01:03:49;;;;;;;3.05;1.05;;;;;;;25.40;38.26;102125.22;4989116;28;20046;-57
2022/10/11 01:06:18;;;;;;;3.40;1.02;;;;;;;25.39;38.19;102120.84;4978056;28;20080;-55
2022/10/11 01:08:46;;;;;;;3.70;1.00;;;;;;;25.38;38.07;102136.56;4995462;28;20023;-56
2022/10/11 01:11:17;;;;;;;3.53;1.20;;;;;;;25.37;38.10;102124.25;4995108;28;20547;-55
2022/10/11 01:14:04;;;;;;;2.70;1.20;;;;;;;25.45;38.10;102133.28;4995163;28;20030;-56
2022/10/11 01:16:38;;;;;;;3.00;1.10;;;;;;;25.45;38.05;102131.53;4987903;28;20061;-57
2022/10/11 01:19:38;;;;;;;3.92;0.95;;;;;;;25.51;37.89;102128.16;4977353;28;20026;-56
2022/10/11 01:22:16;;;;;;;5.00;1.17;;;;;;;25.54;37.77;102130.88;4975021;28;20038;-56
2022/10/11 01:25:06;;;;;;;2.97;1.13;;;;;;;25.47;38.14;102127.19;4994784;28;20058;-56
2022/10/11 01:27:56;;;;;;;2.90;1.05;;;;;;;25.44;37.71;102128.88;4977953;28;20030;-56
2022/10/11 01:30:26;;;;;;;2.20;0.88;;;;;;;25.43;37.97;102135.84;4977629;28;20034;-56
2022/10/11 01:33:32;;;;;;;2.08;1.08;;;;;;;25.42;37.97;102135.81;4977666;28;20030;-56
2022/10/11 01:36:27;;;;;;;4.85;1.13;;;;;;;25.42;38.17;102128.81;4994728;28;20022;-56
2022/10/11 01:39:04;;;;;;;2.87;0.93;;;;;;;25.46;37.89;102130.69;4988331;28;20117;-55
2022/10/11 01:41:37;;;;;;;4.13;1.13;;;;;;;25.41;38.13;102132.25;4976901;28;20686;-56
2022/10/11 01:44:06;;;;;;;3.58;1.08;;;;;;;25.42;38.03;102133.19;4994800;28;20026;-56
2022/10/11 01:46:35;;;;;;;3.13;0.90;;;;;;;25.41;37.75;102113.00;4994863;28;20036;-55
2022/10/11 01:49:05;;;;;;;4.05;1.65;;;;;;;25.42;37.75;102122.69;4977414;28;20396;-54
2022/10/11 01:51:38;;;;;;;2.25;1.10;;;;;;;25.41;38.03;102115.63;4994323;28;20034;-56
2022/10/11 01:54:11;;;;;;;2.22;0.80;;;;;;;25.30;38.23;102116.25;4977296;28;20369;-56
2022/10/11 01:57:12;;;;;;;3.45;1.20;;;;;;;25.40;37.86;102119.97;4994532;28;20105;-55
2022/10/11 02:00:00;;;;;;;4.22;1.73;;;;;;;25.41;38.10;102115.63;4987200;28;20445;-55
2022/10/11 02:02:40;;;;;;;3.78;1.08;;;;;;;25.44;37.85;102121.00;4993678;28;20034;-55
2022/10/11 02:05:20;;;;;;;2.78;0.80;;;;;;;25.37;37.78;102119.91;4994102;28;20092;-55
2022/10/11 02:08:11;;;;;;;2.40;1.05;;;;;;;25.44;38.00;102121.88;4994104;28;20113;-55
2022/10/11 02:10:47;;;;;;;2.35;1.02;;;;;;;25.47;37.98;102113.19;4985306;28;20121;-54
2022/10/11 02:13:38;;;;;;;1.50;0.80;;;;;;;25.37;37.79;102111.13;4993840;28;20476;-57
2022/10/11 02:16:11;;;;;;;3.45;0.65;;;;;;;25.34;38.10;102114.59;4976922;28;20451;-55
2022/10/11 02:18:43;;;;;;;1.88;0.80;;;;;;;25.42;37.70;102120.06;4976292;28;20031;-56
2022/10/11 02:21:12;;;;;;;1.58;0.75;;;;;;;25.42;37.85;102113.06;4976735;28;20027;-53
2022/10/11 02:23:44;;;;;;;3.80;1.02;;;;;;;25.39;37.90;102112.97;4976406;28;20152;-55
2022/10/11 02:26:13;;;;;;;2.10;0.98;;;;;;;25.46;37.66;102117.53;4976387;28;20050;-56
2022/10/11 02:28:42;;;;;;;3.60;0.70;;;;;;;25.43;37.65;102106.06;4976579;28;20470;-55
2022/10/11 02:31:12;;;;;;;2.70;0.80;;;;;;;25.36;38.00;102115.50;4994362;28;20027;-55
2022/10/11 02:33:45;;;;;;;3.17;0.95;;;;;;;25.37;37.80;102114.66;4976641;28;20030;-55
2022/10/11 02:36:20;;;;;;;2.05;0.90;;;;;;;25.30;37.67;102099.59;4994092;28;20496;-55
2022/10/11 02:38:52;;;;;;;4.45;0.90;;;;;;;25.43;37.66;102119.22;4976528;28;20503;-53
2022/10/11 02:41:33;;;;;;;1.95;0.70;;;;;;;25.43;37.49;102121.84;4976417;28;20519;-55
2022/10/11 02:44:09;;;;;;;1.55;0.80;;;;;;;25.40;37.74;102119.09;4993378;28;20027;-56
2022/10/11 02:46:39;;;;;;;2.58;1.00;;;;;;;25.37;37.51;102109.41;4976398;28;20037;-56
2022/10/11 02:49:08;;;;;;;2.60;1.15;;;;;;;25.37;37.52;102113.75;4976374;28;20479;-56
2022/10/11 02:51:37;;;;;;;2.33;0.70;;;;;;;25.34;38.06;102119.84;4993764;28;20045;-54
2022/10/11 02:54:05;;;;;;;1.55;0.90;;;;;;;25.34;37.81;102107.56;4993496;28;20044;-55
2022/10/11 02:56:34;;;;;;;2.53;0.77;;;;;;;25.36;37.66;102110.25;4993759;28;20116;-55
2022/10/11 02:59:02;;;;;;;2.10;0.90;;;;;;;25.34;37.53;102109.31;4993729;28;20023;-55
2022/10/11 03:01:31;;;;;;;2.30;1.00;;;;;;;25.31;37.80;102107.53;4993578;28;20380;-54
2022/10/11 03:03:59;;;;;;;2.55;0.85;;;;;;;25.40;37.71;102100.72;4992675;28;20042;-53
2022/10/11 03:06:28;;;;;;;2.15;0.70;;;;;;;25.42;37.48;102101.69;4993254;28;20195;-55
2022/10/11 03:08:56;;;;;;;1.98;1.00;;;;;;;25.36;37.77;102099.75;4993602;28;20113;-55
2022/10/11 03:11:24;;;;;;;1.83;0.90;;;;;;;25.37;37.58;102101.53;4993567;28;20062;-55
2022/10/11 03:13:53;;;;;;;2.55;0.75;;;;;;;25.30;37.80;102097.88;4993331;28;20084;-55
2022/10/11 03:16:22;;;;;;;1.65;0.70;;;;;;;25.33;37.75;102094.41;4993623;28;20027;-55
2022/10/11 03:18:50;;;;;;;2.08;0.73;;;;;;;25.39;37.72;102091.06;4976269;28;20026;-55
2022/10/11 03:21:19;;;;;;;1.70;0.70;;;;;;;25.31;37.46;102093.50;4993516;28;20018;-56
2022/10/11 03:23:46;;;;;;;3.13;0.93;;;;;;;25.32;37.64;102096.13;4993243;28;20027;-54
2022/10/11 03:26:15;;;;;;;2.25;0.80;;;;;;;25.27;37.65;102092.53;4993118;28;20033;-55
2022/10/11 03:28:43;;;;;;;3.70;1.38;;;;;;;25.32;37.79;102092.63;4993011;28;20029;-56
2022/10/11 03:31:11;;;;;;;2.13;0.63;;;;;;;25.33;37.35;102091.78;4994569;28;20032;-55
2022/10/11 03:33:39;;;;;;;2.38;0.93;;;;;;;25.36;37.56;102090.97;5004781;28;20030;-56
2022/10/11 03:36:08;;;;;;;3.88;0.95;;;;;;;25.37;37.44;102095.38;5016556;28;20026;-56
2022/10/11 03:38:37;;;;;;;2.40;1.08;;;;;;;25.38;37.41;102097.16;5016736;28;20064;-55
2022/10/11 03:41:06;;;;;;;1.88;0.70;;;;;;;25.36;37.67;102088.34;5015977;28;20053;-56
2022/10/11 03:43:34;;;;;;;1.52;0.70;;;;;;;25.31;37.46;102089.13;5016555;28;20022;-54
2022/10/11 03:46:03;;;;;;;2.22;0.63;;;;;;;25.36;37.66;102084.00;5016549;28;20072;-56
2022/10/11 03:48:31;;;;;;;3.05;0.93;;;;;;;25.34;37.60;102086.56;5016617;28;20076;-53
2022/10/11 03:51:00;;;;;;;2.35;0.70;;;;;;;25.28;37.57;102082.91;5016410;28;20026;-54
2022/10/11 03:53:28;;;;;;;2.53;0.90;;;;;;;25.31;37.63;102083.88;5015870;28;20034;-54
2022/10/11 03:55:57;;;;;;;2.05;0.88;;;;;;;25.30;37.37;102092.63;5016514;28;20022;-55
2022/10/11 03:58:26;;;;;;;2.53;0.88;;;;;;;25.30;37.60;102103.13;5016285;28;20022;-55
2022/10/11 04:00:54;;;;;;;3.20;0.70;;;;;;;25.32;37.83;102098.75;5016265;28;20069;-56
2022/10/11 04:03:23;;;;;;;2.10;0.85;;;;;;;25.38;37.29;102097.16;5015465;28;20409;-55
2022/10/11 04:05:52;;;;;;;2.85;0.95;;;;;;;25.37;37.51;102091.03;5015989;28;20036;-55
2022/10/11 04:08:20;;;;;;;2.42;0.77;;;;;;;25.33;37.57;102094.41;5015902;28;20029;-54
2022/10/11 04:10:49;;;;;;;2.63;0.82;;;;;;;25.29;37.65;102096.09;5015965;28;20026;-55
2022/10/11 04:13:16;;;;;;;2.20;1.20;;;;;;;25.32;37.31;102109.28;5015915;28;20030;-53
2022/10/11 04:15:45;;;;;;;1.38;0.50;;;;;;;25.29;37.46;102101.34;5016049;28;20468;-54
2022/10/11 04:18:13;;;;;;;2.83;0.88;;;;;;;25.29;37.45;102100.44;4998946;28;20022;-53
2022/10/11 04:20:42;;;;;;;2.13;0.98;;;;;;;25.26;37.70;102093.38;5015589;28;20088;-55
2022/10/11 04:23:10;;;;;;;3.90;0.70;;;;;;;25.28;37.45;102098.66;5015489;28;20030;-56
2022/10/11 04:25:40;;;;;;;3.33;0.82;;;;;;;25.27;37.64;102099.50;5015279;28;20061;-55
2022/10/11 04:28:08;;;;;;;2.45;0.88;;;;;;;25.29;37.67;102103.06;4998391;28;20037;-55
2022/10/11 04:30:37;;;;;;;3.95;1.02;;;;;;;25.31;37.61;102109.25;5015832;28;20030;-56
2022/10/11 04:33:05;;;;;;;2.15;0.77;;;;;;;25.30;37.17;102105.75;5015567;28;20055;-54
2022/10/11 04:35:34;;;;;;;2.45;0.75;;;;;;;25.28;37.61;102109.16;5015665;28;20064;-56
2022/10/11 04:38:02;;;;;;;4.25;0.82;;;;;;;25.28;37.49;102111.78;5016014;28;20052;-54
2022/10/11 04:40:31;;;;;;;3.08;0.95;;;;;;;25.28;37.73;102109.16;5015424;28;20030;-55
2022/10/11 04:43:00;;;;;;;1.48;0.60;;;;;;;25.28;37.49;102125.81;5014647;28;20121;-56
2022/10/11 04:45:28;;;;;;;1.88;0.60;;;;;;;25.30;37.37;102112.72;5014893;28;20398;-54
2022/10/11 04:47:57;;;;;;;1.73;0.90;;;;;;;25.28;37.43;102119.66;5015371;28;20037;-55
2022/10/11 04:50:26;;;;;;;1.17;0.65;;;;;;;25.20;37.50;102110.72;5015229;28;20101;-55
2022/10/11 04:52:53;;;;;;;3.90;0.88;;;;;;;25.23;37.24;102111.69;5015063;28;20407;-55
2022/10/11 04:55:22;;;;;;;2.33;0.55;;;;;;;25.25;37.56;102119.56;5015378;28;20057;-55
2022/10/11 04:57:50;;;;;;;2.00;0.60;;;;;;;25.24;37.54;102123.97;5015327;28;20048;-55
2022/10/11 05:00:19;;;;;;;0.95;0.50;;;;;;;25.25;37.38;102125.75;5015039;28;20029;-54
2022/10/11 05:02:47;;;;;;;1.80;0.77;;;;;;;25.28;37.45;102127.53;5014681;28;20103;-56
2022/10/11 05:05:16;;;;;;;1.90;0.60;;;;;;;25.28;37.34;102122.28;5015036;28;20033;-56
2022/10/11 05:07:45;;;;;;;2.05;0.70;;;;;;;25.23;37.75;102132.69;5014842;28;20045;-55
2022/10/11 05:10:13;;;;;;;2.15;1.02;;;;;;;25.27;37.61;102136.28;5014883;28;20034;-55
2022/10/11 05:12:42;;;;;;;1.42;0.50;;;;;;;25.34;37.25;102136.47;5014752;28;20041;-50
2022/10/11 05:15:11;;;;;;;2.85;0.95;;;;;;;25.29;37.10;102130.22;5014578;28;20021;-56
2022/10/11 05:17:38;;;;;;;1.00;0.55;;;;;;;25.22;37.63;102116.91;4997420;28;20492;-56
2022/10/11 05:20:06;;;;;;;2.53;0.98;;;;;;;25.27;37.39;102128.38;4997334;28;20069;-54
2022/10/11 05:22:34;;;;;;;1.50;0.80;;;;;;;25.29;37.62;102130.22;5014417;28;20030;-54
2022/10/11 05:25:01;;;;;;;1.02;0.50;;;;;;;25.29;37.26;102129.31;5014679;28;20109;-55
2022/10/11 05:27:30;;;;;;;3.25;1.00;;;;;;;25.25;37.33;102128.38;5014382;28;20041;-55
2022/10/11 05:29:58;;;;;;;2.08;0.60;;;;;;;25.33;37.25;102121.56;5014475;28;20566;-55
2022/10/11 05:32:27;;;;;;;2.92;0.50;;;;;;;25.29;37.41;102114.47;4997036;28;20026;-55
2022/10/11 05:34:55;;;;;;;5.82;0.90;;;;;;;25.28;37.59;102123.19;5014607;28;20384;-56
2022/10/11 05:37:24;;;;;;;2.30;0.80;;;;;;;25.32;37.09;102116.28;5014475;28;20026;-55
2022/10/11 05:39:52;;;;;;;1.52;0.68;;;;;;;25.30;37.60;102113.63;5014413;28;20065;-55
2022/10/11 05:42:21;;;;;;;1.10;0.60;;;;;;;25.31;37.37;102118.03;5013777;28;20373;-55
2022/10/11 05:44:50;;;;;;;2.67;0.88;;;;;;;25.37;36.97;102126.88;5013914;28;20112;-55
2022/10/11 05:47:18;;;;;;;2.78;0.80;;;;;;;25.31;37.17;102125.00;5014305;28;20053;-56
2022/10/11 05:49:47;;;;;;;4.80;0.80;;;;;;;25.32;37.00;102114.53;5014529;28;20021;-55
2022/10/11 05:52:20;;;;;;;2.42;0.88;;;;;;;25.34;37.17;102120.72;5013898;28;20073;-55
2022/10/11 05:54:48;;;;;;;4.68;0.73;;;;;;;25.32;37.41;102116.28;5013182;28;20573;-55
2022/10/11 05:57:16;;;;;;;2.38;0.75;;;;;;;25.42;37.28;102117.44;5014011;28;20037;-52
2022/10/11 05:59:45;;;;;;;5.43;1.00;;;;;;;25.37;37.03;102119.91;5014571;28;20512;-55
2022/10/11 06:02:14;;;;;;;2.38;0.82;;;;;;;25.35;37.10;102116.38;5013823;28;20018;-55
2022/10/11 06:04:42;;;;;;;3.35;1.05;;;;;;;25.29;37.20;102117.09;5013690;28;20072;-54
2022/10/11 06:07:11;;;;;;;2.00;0.70;;;;;;;25.30;37.34;102118.88;4996307;28;20063;-54
2022/10/11 06:09:39;;;;;;;3.22;0.90;;;;;;;25.32;37.14;102116.28;5014117;28;20026;-55
2022/10/11 06:12:08;;;;;;;11.48;1.10;;;;;;;25.30;37.46;102115.34;4996691;28;20026;-56
2022/10/11 06:14:36;;;;;;;7.22;0.88;;;;;;;25.29;37.18;102116.19;5013890;28;20046;-55
2022/10/11 06:17:04;;;;;;;4.07;0.82;;;;;;;25.27;37.14;102120.50;5013732;28;20061;-54
2022/10/11 06:19:32;;;;;;;1.95;1.08;;;;;;;25.27;37.45;102121.41;5013803;28;20030;-55
2022/10/11 06:22:00;;;;;;;3.45;0.95;;;;;;;25.31;37.35;102115.41;5013771;28;20033;-55
2022/10/11 06:24:29;;;;;;;5.63;1.23;;;;;;;25.35;37.05;102140.00;5013656;28;20467;-55
2022/10/11 06:26:57;;;;;;;1.67;0.63;;;;;;;25.39;36.94;102133.06;5013340;28;20537;-52
2022/10/11 06:29:26;;;;;;;2.58;1.00;;;;;;;25.36;37.57;102138.25;5013388;28;20475;-54
2022/10/11 06:31:54;;;;;;;1.75;0.80;;;;;;;25.32;37.40;102137.28;5013361;28;20104;-55
2022/10/11 06:34:23;;;;;;;4.78;0.80;;;;;;;25.31;37.46;102143.38;5013656;28;20025;-55
2022/10/11 06:36:51;;;;;;;3.33;0.80;;;;;;;25.36;37.02;102140.88;5013293;28;20452;-55
2022/10/11 06:39:20;;;;;;;2.15;0.80;;;;;;;25.34;37.08;102138.22;5013285;28;20088;-55
2022/10/11 06:41:49;;;;;;;2.65;0.80;;;;;;;25.45;37.08;102141.16;5013466;28;20052;-54
2022/10/11 06:44:18;;;;;;;2.45;1.00;;;;;;;25.40;37.53;102148.00;5013437;28;20018;-53
2022/10/11 06:46:46;;;;;;;4.80;0.77;;;;;;;25.41;37.19;102150.66;5013308;28;20480;-55
2022/10/11 06:49:15;;;;;;;3.88;0.80;;;;;;;25.40;37.33;102143.59;5013237;28;20025;-55
2022/10/11 06:51:43;;;;;;;4.63;1.10;;;;;;;25.36;37.32;102140.88;5013450;28;20097;-54
2022/10/11 06:54:12;;;;;;;1.90;0.70;;;;;;;25.33;37.25;102145.19;5013211;28;20038;-54
2022/10/11 06:56:40;;;;;;;2.05;0.80;;;;;;;25.36;37.00;102141.78;5013203;28;20057;-55
2022/10/11 06:59:10;;;;;;;4.07;0.80;;;;;;;25.28;37.44;102144.22;5013008;28;20030;-54
2022/10/11 07:01:39;;;;;;;1.90;0.77;;;;;;;25.37;37.50;102143.56;5012938;28;20033;-55
2022/10/11 07:04:07;;;;;;;2.35;0.85;;;;;;;25.41;37.08;102149.78;4998672;28;20451;-48
2022/10/11 07:06:37;;;;;;;2.75;0.57;;;;;;;25.39;37.15;102147.13;4994888;28;20468;-50
2022/10/11 07:09:06;;;;;;;1.98;0.80;;;;;;;25.38;37.45;102153.22;4996890;28;20060;-54
2022/10/11 07:11:35;;;;;;;1.60;0.68;;;;;;;25.39;37.44;102161.97;4996839;28;20167;-56
2022/10/11 07:14:06;;;;;;;3.45;1.00;;;;;;;25.38;37.30;102163.72;4997351;28;20365;-55
2022/10/11 07:16:36;;;;;;;2.53;1.00;;;;;;;25.31;37.62;102152.16;4997502;28;20037;-54
2022/10/11 07:19:06;;;;;;;3.65;1.00;;;;;;;25.39;37.28;102176.00;4997373;28;20038;-55
2022/10/11 07:21:35;;;;;;;1.73;0.57;;;;;;;25.38;37.14;102171.59;4996988;28;20035;-52
2022/10/11 07:24:03;;;;;;;2.05;0.90;;;;;;;25.49;37.31;102177.16;4997302;28;20072;-56
2022/10/11 07:26:32;;;;;;;1.27;0.68;;;;;;;25.34;37.29;102162.72;4997258;28;20022;-54
2022/10/11 07:29:00;;;;;;;1.85;0.77;;;;;;;25.29;37.39;102156.50;4997079;28;20030;-55
2022/10/11 07:31:29;;;;;;;1.33;0.68;;;;;;;25.42;37.59;102177.84;4997076;28;20096;-55
2022/10/11 07:33:58;;;;;;;2.53;0.75;;;;;;;25.36;37.40;102172.41;4997108;28;20503;-54
2022/10/11 07:36:26;;;;;;;3.33;0.55;;;;;;;25.35;37.49;102179.41;4997022;28;20038;-54
2022/10/11 07:38:54;;;;;;;2.08;0.75;;;;;;;25.38;37.66;102184.75;4997111;28;20023;-55
2022/10/11 07:41:23;;;;;;;2.97;0.82;;;;;;;25.38;37.64;102176.88;4996897;28;20055;-55
2022/10/11 07:43:53;;;;;;;1.52;0.60;;;;;;;25.38;37.65;102183.84;4997055;28;20018;-56
2022/10/11 07:46:21;;;;;;;1.55;0.60;;;;;;;25.43;37.24;102180.50;4996659;28;20109;-54
2022/10/11 07:48:50;;;;;;;1.40;0.70;;;;;;;25.42;37.44;102185.72;4996604;28;20035;-50
2022/10/11 07:51:21;;;;;;;1.30;0.70;;;;;;;25.45;37.63;102185.81;4996570;28;20034;-50
2022/10/11 07:53:50;;;;;;;2.70;0.77;;;;;;;25.49;37.53;102182.41;4996831;28;20029;-54
2022/10/11 07:56:20;;;;;;;2.72;1.05;;;;;;;25.52;37.35;102185.09;4996608;28;20088;-55
2022/10/11 07:58:54;;;;;;;1.65;0.63;;;;;;;25.50;37.56;102186.81;4996558;28;20034;-55
2022/10/11 08:01:23;;;;;;;1.43;0.53;;;;;;;25.57;37.45;102199.28;4979354;28;20037;-54
2022/10/11 08:03:52;;;;;;;1.67;0.70;;;;;;;25.61;37.23;102200.22;4996226;28;20291;-54
2022/10/11 08:06:21;;;;;;;2.22;1.05;;;;;;;25.63;37.58;102195.91;4996311;28;20053;-54
2022/10/11 08:08:50;;;;;;;3.63;0.82;;;;;;;25.65;37.40;102195.97;4996662;28;20022;-54
2022/10/11 08:11:24;;;;;;;3.47;0.85;;;;;;;25.70;37.22;102196.94;4996134;28;20037;-55
2022/10/11 08:13:51;;;;;;;4.13;0.77;;;;;;;25.72;37.42;102195.25;4996335;28;20037;-54
2022/10/11 08:16:20;;;;;;;2.95;1.20;;;;;;;25.72;37.60;102206.66;4995177;28;20023;-55
2022/10/11 08:18:49;;;;;;;2.35;0.93;;;;;;;25.73;37.37;102199.66;4996262;28;20022;-54
2022/10/11 08:21:19;;;;;;;2.83;1.17;;;;;;;25.77;37.62;102206.78;4996028;28;20023;-54
2022/10/11 08:23:47;;;;;;;5.65;0.75;;;;;;;25.73;37.55;102199.66;4996269;28;20033;-56
2022/10/11 08:26:14;;;;;;;4.40;0.90;;;;;;;25.78;37.94;102198.03;4995880;28;20445;-55
2022/10/11 08:28:43;;;;;;;3.22;0.88;;;;;;;25.79;37.48;102200.69;4996176;28;20029;-55
2022/10/11 08:31:13;;;;;;;4.32;0.93;;;;;;;25.81;37.97;102202.47;4978636;28;20030;-54
2022/10/11 08:33:42;;;;;;;2.67;0.85;;;;;;;25.85;37.55;102206.97;4996350;28;20026;-55
2022/10/11 08:36:11;;;;;;;2.70;0.80;;;;;;;25.85;37.63;102213.09;4995578;28;20431;-55
2022/10/11 08:38:40;;;;;;;1.20;0.35;;;;;;;25.87;37.65;102211.41;4995521;28;20022;-55
2022/10/11 08:41:28;;;;;;;4.28;0.68;;;;;;;25.86;37.79;102212.25;4978675;28;20026;-55
2022/10/11 08:44:12;;;;;;;3.97;0.93;;;;;;;25.88;37.74;102213.19;4988798;28;20053;-55
2022/10/11 08:46:43;;;;;;;1.30;0.60;;;;;;;25.92;37.56;102209.78;4995286;28;20507;-54
2022/10/11 08:49:13;;;;;;;2.30;0.77;;;;;;;25.94;37.69;102212.44;4978475;28;20061;-54
2022/10/11 08:51:47;;;;;;;3.15;1.00;;;;;;;25.94;37.63;102215.97;4995653;28;20033;-54
2022/10/11 08:54:37;;;;;;;2.22;0.65;;;;;;;26.03;37.38;102214.41;4995596;28;20122;-55
2022/10/11 08:57:06;;;;;;;1.13;0.43;;;;;;;26.02;37.58;102210.00;4989766;28;20092;-53
2022/10/11 08:59:56;;;;;;;1.50;0.50;;;;;;;26.03;37.73;102217.03;4996090;28;20121;-55
2022/10/11 09:02:34;;;;;;;3.00;0.95;;;;;;;26.05;37.82;102210.97;4995277;28;20500;-55
2022/10/11 09:05:03;;;;;;;4.00;0.68;;;;;;;26.08;37.78;102216.28;4995309;28;20039;-55
2022/10/11 09:07:41;;;;;;;2.55;0.80;;;;;;;26.09;37.65;102201.41;4995885;28;20030;-55
2022/10/11 09:10:27;;;;;;;2.42;0.68;;;;;;;26.16;37.39;102205.97;4961964;28;20097;-55
2022/10/11 09:13:07;;;;;;;2.85;0.80;;;;;;;26.13;37.50;102202.41;4977861;28;20484;-55
2022/10/11 09:15:55;;;;;;;2.55;0.82;;;;;;;26.18;37.52;102209.53;4995179;28;20480;-55
2022/10/11 09:18:50;;;;;;;1.83;0.70;;;;;;;26.18;37.62;102211.28;4961683;28;20097;-54
2022/10/11 09:21:57;;;;;;;2.90;0.63;;;;;;;26.23;37.62;102210.53;4977903;28;20377;-55
2022/10/11 09:24:33;;;;;;;2.35;0.85;;;;;;;26.26;37.45;102211.47;4974121;28;20080;-54
2022/10/11 09:27:13;;;;;;;2.83;1.08;;;;;;;26.20;37.36;102205.19;4977611;28;20069;-54
2022/10/11 09:30:07;;;;;;;2.47;0.70;;;;;;;26.18;37.49;102206.91;4977732;28;20082;-55
2022/10/11 09:32:38;;;;;;;4.13;1.42;;;;;;;26.20;37.54;102201.69;4991194;28;20042;-56
2022/10/11 09:35:18;;;;;;;1.95;0.70;;;;;;;26.17;37.33;102205.13;4995158;28;20019;-55
2022/10/11 09:38:03;;;;;;;3.20;1.00;;;;;;;26.15;37.42;102205.94;4994764;28;20499;-55
2022/10/11 09:41:00;;;;;;;1.73;0.75;;;;;;;26.21;37.46;102206.09;4995128;28;20031;-55
2022/10/11 09:43:28;;;;;;;2.05;0.73;;;;;;;26.24;37.11;102204.44;4988416;28;20057;-55
2022/10/11 09:45:57;;;;;;;3.95;0.90;;;;;;;26.22;37.11;102192.97;4977066;28;20392;-57
2022/10/11 09:48:28;;;;;;;8.88;1.08;;;;;;;26.23;36.06;102200.00;4977448;28;20035;-56
2022/10/11 09:51:04;;;;;;;5.10;1.67;;;;;;;26.18;34.89;102199.00;4977505;28;20029;-57
2022/10/11 09:53:53;;;;;;;4.43;1.40;;;;;;;26.18;34.82;102198.13;4977394;28;20038;-55
2022/10/11 09:56:23;;;;;;;8.07;1.73;;;;;;;26.19;34.46;102195.53;4978581;28;20088;-55
2022/10/11 09:59:07;;;;;;;6.53;1.70;;;;;;;26.06;34.26;102190.81;4977380;28;20487;-56
2022/10/11 10:01:36;;;;;;;8.37;1.63;;;;;;;26.08;33.53;102192.63;4976361;28;20034;-56
2022/10/11 10:04:11;;;;;;;5.95;1.45;;;;;;;25.94;34.46;102187.06;4973530;28;20547;-55
2022/10/11 10:06:38;;;;;;;;;;;;;;;25.97;34.38;102194.09;4975197;28;20042;-55
2022/10/11 10:09:27;;;;;;;4.55;1.65;;;;;;;25.89;33.43;102190.44;4975086;28;19914;-54
2022/10/11 10:11:56;;;;;;;4.70;1.40;;;;;;;25.99;34.23;102191.50;4973811;28;20114;-50
2022/10/11 10:14:30;;;;;;;11.30;1.90;;;;;;;25.87;33.75;102190.38;4973366;28;20042;-57
2022/10/11 10:17:01;;;;;;;4.78;1.30;;;;;;;25.85;34.20;102199.94;4972932;28;20047;-56
2022/10/11 10:19:28;;;;;;;8.40;1.45;;;;;;;25.86;33.76;102185.97;4972059;28;20038;-49
2022/10/11 10:21:56;;;;;;;4.13;1.20;;;;;;;25.87;33.76;102190.38;4972003;28;20026;-53
2022/10/11 10:24:34;;;;;;;4.57;1.60;;;;;;;25.85;33.85;102184.19;4973548;28;20031;-55
2022/10/11 10:27:21;;;;;;;3.78;1.55;;;;;;;25.80;33.75;102188.47;4973323;28;20036;-54
2022/10/11 10:30:08;;;;;;;7.32;1.95;;;;;;;25.71;33.64;102193.47;4973114;28;20031;-55
2022/10/11 10:33:00;;;;;;;5.63;1.42;;;;;;;25.69;33.77;102185.56;4968394;28;20037;-56
2022/10/11 10:35:50;;;;;;;4.70;1.02;;;;;;;25.74;34.22;102183.03;4971675;28;20078;-54
2022/10/11 10:38:48;;;;;;;5.68;1.27;;;;;;;25.76;34.24;102189.22;4969938;28;20109;-55
2022/10/11 10:41:17;;;;;;;3.95;1.35;;;;;;;25.85;33.89;102186.81;4968243;28;20109;-54
2022/10/11 10:43:52;;;;;;;5.35;1.20;;;;;;;25.66;34.17;102161.81;4973345;28;20029;-56
2022/10/11 10:46:46;;;;;;;4.75;1.20;;;;;;;25.71;34.05;102189.13;4973018;28;20122;-56
2022/10/11 10:49:18;;;;;;;6.30;1.40;;;;;;;25.68;34.20;102189.03;4969106;28;20050;-55
2022/10/11 10:52:01;;;;;;;7.15;1.80;;;;;;;25.69;34.51;102192.53;4973312;28;20463;-55
2022/10/11 10:54:48;;;;;;;5.20;1.52;;;;;;;25.75;34.41;102190.94;4973095;28;20031;-56
2022/10/11 10:57:20;;;;;;;4.90;1.50;;;;;;;25.74;34.01;102191.78;4973069;28;20401;-55
2022/10/11 10:59:51;;;;;;;5.00;1.52;;;;;;;25.70;34.20;102200.47;4971996;28;20037;-56
2022/10/11 11:02:24;;;;;;;6.68;1.40;;;;;;;25.64;34.20;102197.69;4973144;28;20035;-55
2022/10/11 11:05:01;;;;;;;6.07;1.92;;;;;;;25.61;34.57;102192.34;4988633;28;20040;-54
2022/10/11 11:07:51;;;;;;;3.75;1.30;;;;;;;25.62;34.07;102191.50;4992729;28;20121;-55
2022/10/11 11:10:27;;;;;;;8.23;1.35;;;;;;;25.70;34.13;102196.94;4976951;28;20093;-55
2022/10/11 11:13:19;;;;;;;2.63;1.00;;;;;;;25.69;34.18;102195.16;4979429;28;20034;-53
2022/10/11 11:15:53;;;;;;;4.07;1.65;;;;;;;25.68;34.36;102196.00;4992535;28;20058;-55
2022/10/11 11:18:42;;;;;;;6.78;1.42;;;;;;;25.61;34.00;102192.34;4975353;28;20476;-56
2022/10/11 11:21:48;;;;;;;10.13;1.33;;;;;;;25.57;33.94;102194.00;4962889;28;20129;-55
2022/10/11 11:24:39;;;;;;;4.88;1.38;;;;;;;25.55;34.27;102185.19;4984474;28;20445;-55
2022/10/11 11:27:22;;;;;;;7.78;1.48;;;;;;;25.61;34.30;102200.22;4989265;28;20042;-55
2022/10/11 11:30:04;;;;;;;6.82;1.65;;;;;;;25.65;34.29;102195.97;4992527;28;20052;-55
2022/10/11 11:32:46;;;;;;;7.47;1.83;;;;;;;25.72;34.32;102201.41;4992176;28;20041;-55
2022/10/11 11:35:24;;;;;;;5.03;1.25;;;;;;;25.70;34.20;102197.84;4992281;28;20034;-55
2022/10/11 11:37:58;;;;;;;4.82;1.48;;;;;;;25.64;34.51;102195.06;4992521;28;20400;-56
2022/10/11 11:40:46;;;;;;;4.65;1.50;;;;;;;25.65;34.49;102195.97;4992268;28;20033;-56
2022/10/11 11:43:31;;;;;;;7.03;1.70;;;;;;;25.61;34.77;102192.34;4992245;28;20022;-55
2022/10/11 11:46:08;;;;;;;5.82;1.92;;;;;;;25.70;34.58;102183.81;4992369;28;20407;-56
2022/10/11 11:48:37;;;;;;;9.23;3.00;;;;;;;25.67;34.59;102178.47;4992174;28;20038;-56
2022/10/11 11:51:05;;;;;;;5.82;2.58;;;;;;;25.70;34.85;102174.19;4975196;28;20369;-55